Time;durP1;ratioP1;P1;durP2;ratioP2;P2;SDS_P1;SDS_P2;PMS_P1;PMS_P2;Temp;Humidity;BMP_temperature;BMP_pressure;BME280_temperature;BME280_humidity;BME280_pressure;Samples;Min_cycle;Max_cycle;Signal;HPM_P1;HPM_P2
2022/09/18 00:01:56;;;;;;;7.93;2.10;;;;;;;9.07;100.00;100120.25;7381305;19;20415;-55
2022/09/18 00:04:26;;;;;;;10.13;1.73;;;;;;;9.08;100.00;100114.25;7391747;19;20511;-61
2022/09/18 00:06:58;;;;;;;10.63;1.67;;;;;;;9.05;100.00;100118.50;7382133;19;20961;-53
2022/09/18 00:09:27;;;;;;;8.17;2.00;;;;;;;9.04;100.00;100119.28;7393216;19;20392;-54
2022/09/18 00:11:58;;;;;;;16.70;2.50;;;;;;;8.97;100.00;100119.88;7384412;19;20423;-55
2022/09/18 00:14:28;;;;;;;10.23;1.80;;;;;;;8.98;100.00;100123.34;7391165;19;20419;-57
2022/09/18 00:16:58;;;;;;;7.53;2.20;;;;;;;8.95;100.00;100121.53;7384661;19;20855;-57
2022/09/18 00:19:28;;;;;;;13.20;2.37;;;;;;;8.93;100.00;100122.28;7392740;19;20395;-57
2022/09/18 00:22:00;;;;;;;8.90;1.57;;;;;;;8.92;100.00;100121.38;7385826;19;20419;-56
2022/09/18 00:24:30;;;;;;;10.23;2.23;;;;;;;9.01;100.00;100129.47;7390922;19;20423;-51
2022/09/18 00:26:59;;;;;;;12.60;1.83;;;;;;;8.96;100.00;100131.00;7382797;19;20427;-56
2022/09/18 00:29:29;;;;;;;18.63;2.03;;;;;;;9.00;100.00;100124.25;7392482;19;20403;-55
2022/09/18 00:31:58;;;;;;;16.67;2.90;;;;;;;8.96;100.00;100128.41;7383818;19;20423;-57
2022/09/18 00:34:28;;;;;;;17.93;1.97;;;;;;;9.07;100.00;100131.38;7390739;19;20415;-55
2022/09/18 00:37:00;;;;;;;12.90;1.93;;;;;;;9.05;100.00;100128.78;7383021;19;20435;-54
2022/09/18 00:39:29;;;;;;;18.93;2.57;;;;;;;9.07;100.00;100130.53;7391866;19;20391;-57
2022/09/18 00:41:58;;;;;;;6.97;1.90;;;;;;;9.03;100.00;100137.25;7381574;19;20432;-59
2022/09/18 00:44:40;;;;;;;5.43;1.57;;;;;;;9.04;100.00;100139.88;7390093;19;20427;-60
2022/09/18 00:47:19;;;;;;;7.93;1.80;;;;;;;9.13;100.00;100136.78;7382466;19;20945;-53
2022/09/18 00:49:52;;;;;;;16.23;2.10;;;;;;;9.18;100.00;100131.81;7391990;19;20763;-57
2022/09/18 00:52:28;;;;;;;12.37;1.80;;;;;;;9.14;100.00;100132.50;7383889;19;20437;-51
2022/09/18 00:55:01;;;;;;;7.67;2.00;;;;;;;9.19;100.00;100136.13;7390155;19;20419;-57
2022/09/18 00:57:32;;;;;;;12.83;2.00;;;;;;;9.18;100.00;100135.25;7381896;19;20953;-59
2022/09/18 01:00:03;;;;;;;8.30;2.10;;;;;;;9.21;100.00;100137.06;7391721;19;20395;-57
2022/09/18 01:02:33;;;;;;;10.27;1.60;;;;;;;9.20;100.00;100143.03;7386109;19;20461;-55
2022/09/18 01:05:02;;;;;;;8.57;1.90;;;;;;;9.21;100.00;100152.50;7393880;19;20415;-61
2022/09/18 01:07:46;;;;;;;12.60;1.90;;;;;;;9.16;100.00;100147.19;7383335;19;20415;-51
2022/09/18 01:10:25;;;;;;;15.50;1.90;;;;;;;9.19;100.00;100154.16;7391766;19;20371;-56
2022/09/18 01:12:56;;;;;;;11.77;2.77;;;;;;;9.18;100.00;100162.69;7384418;19;20411;-59
2022/09/18 01:15:33;;;;;;;12.80;2.00;;;;;;;9.22;100.00;100164.56;7396207;19;20419;-56
2022/09/18 01:18:09;;;;;;;14.33;2.10;;;;;;;9.31;100.00;100176.91;7389357;19;20431;-61
2022/09/18 01:20:56;;;;;;;13.27;2.43;;;;;;;9.22;100.00;100187.72;7400709;19;20909;-54
2022/09/18 01:23:49;;;;;;;10.20;1.53;;;;;;;9.26;100.00;100192.19;7397537;19;20403;-58
2022/09/18 01:26:52;;;;;;;6.27;1.70;;;;;;;9.31;100.00;100202.63;7389899;19;20380;-59
2022/09/18 01:29:37;;;;;;;11.50;2.20;;;;;;;9.25;100.00;100218.75;7398180;19;20387;-56
2022/09/18 01:32:10;;;;;;;79.67;38.77;;;;;;;9.86;100.00;100210.66;7389012;19;20399;-57
2022/09/18 01:34:45;;;;;;;9.03;1.80;;;;;;;9.80;100.00;100223.31;7396464;19;20446;-60
2022/09/18 01:37:19;;;;;;;13.93;2.80;;;;;;;9.48;100.00;100229.03;7390603;19;20438;-58
2022/09/18 01:39:53;;;;;;;11.73;2.10;;;;;;;9.61;100.00;100237.22;7400535;19;20410;-59
2022/09/18 01:42:25;;;;;;;12.90;2.37;;;;;;;9.44;100.00;100242.63;7388449;19;20494;-55
2022/09/18 01:45:00;;;;;;;14.03;2.17;;;;;;;9.21;100.00;100247.75;7395915;19;20446;-61
2022/09/18 01:47:34;;;;;;;10.17;1.70;;;;;;;9.14;100.00;100258.63;7389105;19;20418;-51
2022/09/18 01:50:04;;;;;;;9.27;2.10;;;;;;;9.06;100.00;100258.31;7397635;19;20384;-55
2022/09/18 01:52:36;;;;;;;9.93;2.37;;;;;;;8.90;100.00;100254.25;7392216;19;20442;-54
2022/09/18 01:55:11;;;;;;;13.17;1.90;;;;;;;8.90;100.00;100254.25;7395711;19;20411;-51
2022/09/18 01:57:46;;;;;;;6.90;1.50;;;;;;;8.89;100.00;100252.50;7387303;19;20454;-53
2022/09/18 02:00:18;;;;;;;12.73;2.00;;;;;;;8.81;100.00;100256.47;7397257;19;20388;-60
2022/09/18 02:02:52;;;;;;;20.37;3.10;;;;;;;8.80;100.00;100257.25;7388641;19;20399;-51
2022/09/18 02:05:26;;;;;;;10.00;1.70;;;;;;;8.80;100.00;100259.81;7394932;19;20430;-56
2022/09/18 02:08:01;;;;;;;7.10;1.20;;;;;;;8.81;100.00;100251.31;7388253;19;20415;-61
2022/09/18 02:10:33;;;;;;;12.70;2.17;;;;;;;8.72;100.00;100257.81;7396762;19;20383;-53
2022/09/18 02:13:04;;;;;;;12.90;1.93;;;;;;;8.69;100.00;100255.13;7388835;19;20803;-58
2022/09/18 02:15:38;;;;;;;10.87;1.80;;;;;;;8.69;100.00;100243.94;7394640;19;20435;-55
2022/09/18 02:18:11;;;;;;;10.70;1.90;;;;;;;8.64;100.00;100244.66;7386924;19;20435;-58
2022/09/18 02:20:43;;;;;;;12.80;2.10;;;;;;;8.65;100.00;100242.94;7396805;19;20392;-60
2022/09/18 02:23:12;;;;;;;11.57;3.20;;;;;;;8.58;100.00;100231.56;7388247;19;20997;-51
2022/09/18 02:25:49;;;;;;;13.73;1.83;;;;;;;8.55;100.00;100233.13;7392064;19;20426;-49
2022/09/18 02:28:21;;;;;;;11.70;2.17;;;;;;;8.57;100.00;100221.19;7391868;19;20774;-53
2022/09/18 02:30:53;;;;;;;6.63;1.57;;;;;;;8.48;100.00;100225.13;7396427;19;20806;-56
2022/09/18 02:33:27;;;;;;;16.23;2.33;;;;;;;8.47;100.00;100220.75;7391511;19;20478;-54
2022/09/18 02:36:11;;;;;;;9.27;1.50;;;;;;;8.45;100.00;100214.69;7396210;19;20920;-54
2022/09/18 02:38:46;;;;;;;15.93;2.87;;;;;;;8.41;100.00;100207.66;7394356;19;20543;-52
2022/09/18 02:41:21;;;;;;;19.27;2.70;;;;;;;8.44;100.00;100205.22;7391442;19;20952;-57
2022/09/18 02:43:56;;;;;;;11.43;2.50;;;;;;;8.45;100.00;100212.13;7395155;19;20399;-59
2022/09/18 02:46:32;;;;;;;12.10;2.20;;;;;;;8.40;100.00;100208.47;7391235;19;20399;-53
2022/09/18 02:49:09;;;;;;;18.67;2.27;;;;;;;8.31;100.00;100202.97;7395738;19;20391;-56
2022/09/18 02:51:44;;;;;;;17.03;2.30;;;;;;;8.27;100.00;100195.91;7391369;19;20414;-55
2022/09/18 02:54:15;;;;;;;11.67;1.77;;;;;;;8.21;100.00;100192.28;7394198;19;20403;-50
2022/09/18 02:56:48;;;;;;;16.33;2.50;;;;;;;8.16;100.00;100198.91;7393158;19;20395;-57
2022/09/18 02:59:21;;;;;;;7.57;1.40;;;;;;;8.07;100.00;100198.53;7394488;19;20718;-55
2022/09/18 03:01:54;;;;;;;17.20;3.17;;;;;;;8.04;100.00;100193.22;7391191;19;20411;-59
2022/09/18 03:04:25;;;;;;;13.43;2.50;;;;;;;8.00;100.00;100199.06;7393686;19;20421;-51
2022/09/18 03:06:55;;;;;;;9.33;1.90;;;;;;;7.94;100.00;100192.84;7389842;19;20949;-51
2022/09/18 03:09:25;;;;;;;9.80;1.73;;;;;;;7.91;100.00;100191.84;7395286;19;20382;-55
2022/09/18 03:11:55;;;;;;;13.83;2.03;;;;;;;7.86;100.00;100199.34;7390782;19;20434;-54
2022/09/18 03:14:24;;;;;;;11.47;1.77;;;;;;;7.86;100.00;100201.94;7393343;19;20403;-54
2022/09/18 03:16:56;;;;;;;11.77;2.10;;;;;;;7.87;100.00;100202.78;7392044;19;20432;-55
2022/09/18 03:19:26;;;;;;;15.20;2.20;;;;;;;7.92;100.00;100199.63;7393801;19;20387;-54
2022/09/18 03:21:55;;;;;;;16.07;1.93;;;;;;;7.99;100.00;100189.63;7390459;19;20399;-50
2022/09/18 03:24:26;;;;;;;12.90;1.77;;;;;;;8.06;100.00;100174.50;7392797;19;20438;-59
2022/09/18 03:26:56;;;;;;;9.43;2.20;;;;;;;8.07;100.00;100168.59;7389683;19;20399;-52
2022/09/18 03:29:25;;;;;;;17.57;2.10;;;;;;;8.11;100.00;100161.88;7394324;19;20925;-49
2022/09/18 03:31:57;;;;;;;10.50;1.70;;;;;;;8.23;100.00;100174.34;7389851;19;20411;-60
2022/09/18 03:34:27;;;;;;;12.43;2.60;;;;;;;8.27;100.00;100170.22;7394421;19;20930;-54
2022/09/18 03:36:56;;;;;;;20.23;3.07;;;;;;;8.30;100.00;100171.22;7389201;19;20416;-51
2022/09/18 03:39:26;;;;;;;11.23;1.60;;;;;;;8.22;100.00;100176.03;7393279;19;20396;-50
2022/09/18 03:41:55;;;;;;;8.67;1.90;;;;;;;8.24;100.00;100171.84;7389065;19;20802;-55
2022/09/18 03:44:25;;;;;;;12.13;2.07;;;;;;;8.20;100.00;100174.25;7392344;19;20933;-51
2022/09/18 03:46:57;;;;;;;6.93;1.43;;;;;;;8.19;100.00;100188.78;7389396;19;20411;-52
2022/09/18 03:49:27;;;;;;;6.60;1.20;;;;;;;8.16;100.00;100193.75;7393815;19;20909;-50
2022/09/18 03:51:56;;;;;;;9.30;1.83;;;;;;;8.03;100.00;100194.94;7389325;19;20411;-58
2022/09/18 03:54:26;;;;;;;10.87;1.80;;;;;;;8.04;100.00;100208.66;7392125;19;20400;-58
2022/09/18 03:56:55;;;;;;;28.93;2.10;;;;;;;8.06;100.00;100197.63;7389126;19;20424;-55
2022/09/18 03:59:25;;;;;;;3.70;1.20;;;;;;;8.03;100.00;100196.63;7397199;19;20398;-52
2022/09/18 04:01:54;;;;;;;12.00;1.93;;;;;;;7.97;100.00;100203.28;7388983;19;20407;-58
2022/09/18 04:04:26;;;;;;;12.47;1.60;;;;;;;8.00;100.00;100196.50;7392417;19;20416;-50
2022/09/18 04:06:55;;;;;;;10.20;3.27;;;;;;;7.97;100.00;100195.56;7389165;19;20422;-53
2022/09/18 04:09:25;;;;;;;11.10;2.17;;;;;;;8.00;100.00;100193.94;7393389;19;20399;-50
2022/09/18 04:11:54;;;;;;;10.77;1.63;;;;;;;7.96;100.00;100191.22;7388666;19;20403;-55
2022/09/18 04:14:24;;;;;;;9.33;1.50;;;;;;;8.02;100.00;100194.88;7391962;19;20442;-52
2022/09/18 04:16:59;;;;;;;6.80;1.33;;;;;;;8.06;100.00;100191.63;7388558;19;20409;-52
2022/09/18 04:19:31;;;;;;;10.33;1.50;;;;;;;8.07;100.00;100194.28;7392478;19;20415;-55
2022/09/18 04:22:00;;;;;;;9.40;1.47;;;;;;;8.12;100.00;100202.19;7388797;19;20957;-59
2022/09/18 04:24:29;;;;;;;5.50;1.40;;;;;;;8.03;100.00;100201.75;7390890;19;20411;-56
2022/09/18 04:26:59;;;;;;;18.67;2.07;;;;;;;8.06;100.00;100199.34;7388157;19;20415;-54
2022/09/18 04:29:28;;;;;;;8.77;1.17;;;;;;;8.03;100.00;100196.63;7393017;19;20383;-55
2022/09/18 04:31:58;;;;;;;6.97;1.07;;;;;;;8.06;100.00;100201.91;7388607;19;20407;-51
2022/09/18 04:34:27;;;;;;;6.20;1.40;;;;;;;8.05;100.00;100190.75;7390896;19;20411;-55
2022/09/18 04:36:59;;;;;;;10.17;1.33;;;;;;;8.13;100.00;100195.31;7388105;19;20403;-57
2022/09/18 04:39:31;;;;;;;15.13;1.70;;;;;;;8.10;100.00;100198.63;7392121;19;20403;-53
2022/09/18 04:42:00;;;;;;;7.77;1.43;;;;;;;8.08;100.00;100196.03;7387915;19;20415;-59
2022/09/18 04:44:30;;;;;;;6.57;1.57;;;;;;;8.09;100.00;100204.59;7390652;19;20416;-56
2022/09/18 04:46:59;;;;;;;14.03;1.30;;;;;;;8.08;100.00;100198.59;7387806;19;20411;-52
2022/09/18 04:49:29;;;;;;;12.57;1.70;;;;;;;8.14;100.00;100200.53;7401074;19;20961;-59
2022/09/18 04:52:01;;;;;;;10.93;2.20;;;;;;;8.08;100.00;100201.16;7395252;19;20419;-55
2022/09/18 04:54:30;;;;;;;8.90;1.80;;;;;;;8.00;100.00;100199.94;7397605;19;20407;-60
2022/09/18 04:56:59;;;;;;;9.20;1.53;;;;;;;7.94;100.00;100197.09;7394008;19;20426;-54
2022/09/18 04:59:29;;;;;;;6.80;1.93;;;;;;;7.94;100.00;100207.38;7398733;19;20406;-61
2022/09/18 05:01:58;;;;;;;12.97;1.90;;;;;;;7.89;100.00;100202.03;7395172;19;20756;-49
2022/09/18 05:04:28;;;;;;;9.37;1.10;;;;;;;7.89;100.00;100198.63;7397342;19;20411;-59
2022/09/18 05:06:57;;;;;;;14.60;1.60;;;;;;;7.86;100.00;100191.66;7394497;19;20410;-57
2022/09/18 05:09:29;;;;;;;10.30;1.87;;;;;;;7.88;100.00;100196.84;7399219;19;20901;-56
2022/09/18 05:11:58;;;;;;;10.57;2.10;;;;;;;7.91;100.00;100203.00;7394311;19;20955;-55
2022/09/18 05:14:28;;;;;;;4.63;1.10;;;;;;;7.90;100.00;100201.22;7399423;19;20763;-58
2022/09/18 05:16:58;;;;;;;6.17;1.40;;;;;;;7.92;100.00;100207.34;7394487;19;20442;-51
2022/09/18 05:19:27;;;;;;;8.60;1.30;;;;;;;7.89;100.00;100214.88;7398467;19;20383;-58
2022/09/18 05:21:56;;;;;;;7.67;1.03;;;;;;;7.89;100.00;100217.47;7394224;19;20447;-56
2022/09/18 05:24:28;;;;;;;5.13;1.47;;;;;;;7.78;100.00;100216.09;7396363;19;20440;-59
2022/09/18 05:26:58;;;;;;;6.40;1.73;;;;;;;7.67;100.00;100229.34;7393873;19;20430;-52
2022/09/18 05:29:27;;;;;;;9.97;1.20;;;;;;;7.73;100.00;100225.31;7398564;19;20410;-51
2022/09/18 05:31:56;;;;;;;9.13;1.80;;;;;;;7.70;100.00;100229.47;7393446;19;20974;-56
2022/09/18 05:34:26;;;;;;;9.63;1.63;;;;;;;7.73;100.00;100227.88;7400744;19;20975;-52
2022/09/18 05:36:55;;;;;;;3.13;0.93;;;;;;;7.62;100.00;100223.13;7393138;19;20415;-52
2022/09/18 05:39:25;;;;;;;7.10;1.57;;;;;;;7.62;100.00;100225.69;7397765;19;20392;-59
2022/09/18 05:41:57;;;;;;;8.43;1.37;;;;;;;7.65;100.00;100215.56;7393487;19;20410;-56
2022/09/18 05:44:26;;;;;;;12.70;1.77;;;;;;;7.72;100.00;100220.97;7396136;19;20925;-51
2022/09/18 05:46:56;;;;;;;7.93;1.43;;;;;;;7.69;100.00;100217.47;7393339;19;20432;-59
2022/09/18 05:49:25;;;;;;;7.40;1.20;;;;;;;7.64;100.00;100220.63;7397817;19;20379;-56
2022/09/18 05:51:58;;;;;;;7.37;1.60;;;;;;;7.67;100.00;100213.94;7396194;19;20428;-53
2022/09/18 05:54:27;;;;;;;10.10;1.07;;;;;;;7.64;100.00;100215.50;7395900;19;20420;-52
2022/09/18 05:56:59;;;;;;;6.43;1.40;;;;;;;7.54;100.00;100216.78;7392901;19;20410;-55
2022/09/18 05:59:30;;;;;;;7.93;1.53;;;;;;;7.66;100.00;100217.34;7395088;19;20368;-57
2022/09/18 06:02:00;;;;;;;4.13;1.20;;;;;;;7.66;100.00;100219.91;7393041;19;20433;-51
2022/09/18 06:04:30;;;;;;;6.23;0.90;;;;;;;7.55;100.00;100224.53;7395550;19;20411;-58
2022/09/18 06:07:00;;;;;;;5.80;1.00;;;;;;;7.59;100.00;100230.69;7391745;19;20432;-54
2022/09/18 06:09:29;;;;;;;8.40;1.50;;;;;;;7.60;100.00;100227.31;7397323;19;20388;-50
2022/09/18 06:12:01;;;;;;;5.40;1.03;;;;;;;7.68;100.00;100233.69;7392625;19;20418;-53
2022/09/18 06:14:31;;;;;;;5.80;1.50;;;;;;;7.62;100.00;100225.69;7395599;19;20419;-59
2022/09/18 06:17:00;;;;;;;7.10;1.53;;;;;;;7.60;100.00;100221.31;7392394;19;20948;-50
2022/09/18 06:19:30;;;;;;;6.03;1.17;;;;;;;7.54;100.00;100220.22;7396861;19;20400;-49
2022/09/18 06:21:59;;;;;;;6.87;1.67;;;;;;;7.51;100.00;100211.50;7391238;19;20419;-57
2022/09/18 06:24:29;;;;;;;5.47;1.80;;;;;;;7.40;100.00;100209.31;7394868;19;20422;-55
2022/09/18 06:26:58;;;;;;;13.53;1.40;;;;;;;7.40;100.00;100203.31;7391687;19;20411;-53
2022/09/18 06:29:30;;;;;;;5.43;1.53;;;;;;;7.34;100.00;100209.00;7396449;19;20407;-54
2022/09/18 06:32:00;;;;;;;16.00;1.97;;;;;;;7.36;100.00;100206.53;7392127;19;20418;-55
2022/09/18 06:34:29;;;;;;;4.93;1.33;;;;;;;7.41;100.00;100194.78;7394803;19;20422;-55
2022/09/18 06:36:58;;;;;;;6.27;1.30;;;;;;;7.50;100.00;100199.47;7390560;19;20413;-56
2022/09/18 06:39:28;;;;;;;5.87;1.20;;;;;;;7.52;100.00;100208.09;7396001;19;20383;-56
2022/09/18 06:41:59;;;;;;;6.50;1.80;;;;;;;7.56;100.00;100204.88;7390520;19;20450;-54
2022/09/18 06:44:32;;;;;;;10.70;2.00;;;;;;;7.62;100.00;100192.31;7397668;19;20423;-55
2022/09/18 06:47:01;;;;;;;6.60;1.53;;;;;;;7.60;100.00;100205.91;7391045;19;20415;-52
2022/09/18 06:49:31;;;;;;;11.20;1.67;;;;;;;7.57;100.00;100194.69;7396309;19;20373;-58
2022/09/18 06:52:00;;;;;;;13.80;1.80;;;;;;;7.63;100.00;100185.50;7391539;19;20418;-53
2022/09/18 06:54:29;;;;;;;9.33;1.77;;;;;;;7.64;100.00;100189.81;7394319;19;20881;-59
2022/09/18 06:56:59;;;;;;;17.53;1.70;;;;;;;7.65;100.00;100178.75;7390784;19;20936;-57
2022/09/18 06:59:28;;;;;;;14.77;2.57;;;;;;;7.54;100.00;100183.41;7395669;19;20383;-54
2022/09/18 07:02:00;;;;;;;5.27;1.40;;;;;;;7.64;100.00;100180.41;7388872;19;20438;-60
2022/09/18 07:04:30;;;;;;;13.40;1.80;;;;;;;7.64;100.00;100187.25;7393582;19;20429;-60
2022/09/18 07:06:59;;;;;;;7.40;1.60;;;;;;;7.64;100.00;100193.25;7392351;19;20410;-50
2022/09/18 07:09:28;;;;;;;5.57;1.27;;;;;;;7.69;100.00;100196.91;7395306;19;20382;-56
2022/09/18 07:11:58;;;;;;;5.70;1.60;;;;;;;7.73;100.00;100191.94;7389954;19;20406;-58
2022/09/18 07:14:28;;;;;;;8.83;1.40;;;;;;;7.78;100.00;100187.84;7393561;19;20418;-53
2022/09/18 07:17:00;;;;;;;10.67;1.70;;;;;;;7.77;100.00;100180.97;7390543;19;20441;-51
2022/09/18 07:19:29;;;;;;;7.83;2.00;;;;;;;7.85;100.00;100187.34;7395026;19;20380;-58
2022/09/18 07:21:59;;;;;;;11.03;1.80;;;;;;;7.88;100.00;100184.00;7389771;19;20441;-57
2022/09/18 07:24:28;;;;;;;9.80;1.60;;;;;;;8.09;100.00;100194.31;7393046;19;20441;-57
2022/09/18 07:26:59;;;;;;;22.23;2.90;;;;;;;8.40;100.00;100200.75;7389650;19;20440;-51
2022/09/18 07:29:28;;;;;;;14.70;2.10;;;;;;;8.70;100.00;100199.41;7394509;19;20468;-59
2022/09/18 07:32:00;;;;;;;11.50;1.80;;;;;;;8.82;100.00;100199.91;7389824;19;20415;-53
2022/09/18 07:34:30;;;;;;;9.43;2.20;;;;;;;8.50;100.00;100195.19;7397433;19;20419;-51
2022/09/18 07:36:59;;;;;;;8.90;2.00;;;;;;;8.36;100.00;100186.91;7389664;19;20855;-61
2022/09/18 07:39:29;;;;;;;20.90;2.57;;;;;;;8.34;100.00;100188.53;7394407;19;20416;-56
2022/09/18 07:41:58;;;;;;;13.90;1.67;;;;;;;8.46;100.00;100183.00;7389276;19;20415;-55
2022/09/18 07:44:29;;;;;;;12.83;2.00;;;;;;;8.53;100.00;100186.75;7392808;19;20802;-48
2022/09/18 07:47:01;;;;;;;12.20;2.03;;;;;;;8.55;100.00;100184.25;7388686;19;20782;-55
2022/09/18 07:49:31;;;;;;;8.27;2.73;;;;;;;8.59;100.00;100183.56;7393979;19;20380;-61
2022/09/18 07:52:01;;;;;;;7.57;1.90;;;;;;;8.57;100.00;100180.91;7389035;19;20434;-56
2022/09/18 07:54:30;;;;;;;7.60;1.40;;;;;;;8.64;100.00;100177.81;7392402;19;20787;-60
2022/09/18 07:57:00;;;;;;;13.87;3.50;;;;;;;8.71;100.00;100186.63;7388664;19;20407;-54
2022/09/18 07:59:29;;;;;;;6.13;1.80;;;;;;;8.80;100.00;100183.53;7395840;19;20384;-55
2022/09/18 08:02:01;;;;;;;18.33;2.80;;;;;;;8.90;100.00;100189.94;7388788;19;20411;-54
2022/09/18 08:04:31;;;;;;;13.90;3.03;;;;;;;8.94;100.00;100196.06;7391958;19;20411;-54
2022/09/18 08:07:02;;;;;;;9.50;1.97;;;;;;;8.91;100.00;100207.13;7387773;19;20438;-61
2022/09/18 08:09:32;;;;;;;10.43;1.97;;;;;;;8.99;100.00;100205.75;7393339;19;20759;-55
2022/09/18 08:12:02;;;;;;;8.43;2.00;;;;;;;9.22;100.00;100212.59;7388639;19;20438;-52
2022/09/18 08:14:31;;;;;;;11.93;1.77;;;;;;;9.23;100.00;100220.34;7391658;19;20411;-55
2022/09/18 08:17:04;;;;;;;11.90;1.33;;;;;;;9.16;100.00;100228.66;7388301;19;20434;-56
2022/09/18 08:19:34;;;;;;;9.10;1.60;;;;;;;9.13;100.00;100232.00;7393052;19;20406;-54
2022/09/18 08:22:03;;;;;;;10.37;3.17;;;;;;;9.46;100.00;100233.25;7388277;19;20797;-59
2022/09/18 08:24:33;;;;;;;18.73;2.20;;;;;;;9.67;100.00;100238.31;7397704;19;20424;-58
2022/09/18 08:27:02;;;;;;;12.83;2.07;;;;;;;9.89;100.00;100227.94;7394872;19;20763;-55
2022/09/18 08:29:31;;;;;;;11.23;2.27;;;;;;;9.99;100.00;100230.00;7399779;19;20944;-58
2022/09/18 08:32:04;;;;;;;14.97;3.17;;;;;;;9.89;100.00;100243.41;7394535;19;20445;-55
2022/09/18 08:34:38;;;;;;;7.00;1.40;;;;;;;9.77;100.00;100254.13;7398984;19;20829;-57
2022/09/18 08:37:07;;;;;;;32.33;6.90;;;;;;;9.39;100.00;100233.84;7394354;19;20431;-56
2022/09/18 08:39:36;;;;;;;10.03;1.67;;;;;;;8.94;100.00;100253.56;7399896;19;20414;-57
2022/09/18 08:42:17;;;;;;;7.73;0.90;;;;;;;8.66;100.00;100252.41;7393440;19;20406;-61
2022/09/18 08:44:55;;;;;;;11.10;1.90;;;;;;;8.54;100.00;100257.94;7397617;19;20948;-57
2022/09/18 08:47:30;;;;;;;5.10;1.17;;;;;;;8.37;100.00;100255.50;7394620;19;20426;-56
2022/09/18 08:50:05;;;;;;;6.27;1.40;;;;;;;8.43;100.00;100254.00;7399717;19;20392;-50
2022/09/18 08:52:38;;;;;;;10.00;1.80;;;;;;;8.72;100.00;100241.53;7393850;19;20796;-60
2022/09/18 08:55:11;;;;;;;11.23;1.80;;;;;;;8.87;100.00;100236.13;7396561;19;20523;-54
2022/09/18 08:57:43;;;;;;;5.60;1.60;;;;;;;9.18;100.00;100227.06;7393574;19;20738;-54
2022/09/18 09:00:18;;;;;;;6.50;1.80;;;;;;;9.21;100.00;100234.88;7399469;19;20779;-53
2022/09/18 09:02:52;;;;;;;8.97;2.30;;;;;;;9.51;100.00;100241.13;7382872;19;20439;-57
2022/09/18 09:05:23;;;;;;;8.03;1.47;;;;;;;9.52;100.00;100240.31;7397986;19;20423;-57
2022/09/18 09:08:13;;;;;;;6.47;1.90;;;;;;;9.82;100.00;100247.44;7394422;19;20407;-57
2022/09/18 09:10:46;;;;;;;8.77;2.60;;;;;;;9.86;100.00;100245.03;7399322;19;20379;-49
2022/09/18 09:13:38;;;;;;;7.70;1.33;;;;;;;9.91;100.00;100249.47;7392096;19;20419;-58
2022/09/18 09:16:16;;;;;;;8.17;1.53;;;;;;;10.23;100.00;100265.22;7393864;19;20784;-60
2022/09/18 09:18:58;;;;;;;3.50;1.13;;;;;;;10.21;100.00;100253.97;7398552;19;20401;-52
2022/09/18 09:21:43;;;;;;;8.57;1.47;;;;;;;10.20;100.00;100270.28;7394013;19;20437;-57
2022/09/18 09:24:22;;;;;;;8.30;1.40;;;;;;;10.12;100.00;100280.31;7396859;19;20450;-59
2022/09/18 09:26:53;;;;;;;9.33;3.27;;;;;;;10.09;100.00;100293.97;7393052;19;20438;-54
2022/09/18 09:29:27;;;;;;;6.83;1.60;;;;;;;10.21;100.00;100297.81;7398412;19;20383;-59
2022/09/18 09:31:59;;;;;;;13.10;1.80;;;;;;;10.21;100.00;100313.28;7392606;19;20427;-52
2022/09/18 09:34:33;;;;;;;9.57;1.50;;;;;;;10.40;100.00;100319.94;7396452;19;20441;-53
2022/09/18 09:37:06;;;;;;;16.03;2.63;;;;;;;10.54;100.00;100343.69;7392572;19;20431;-55
2022/09/18 09:39:40;;;;;;;7.93;1.20;;;;;;;10.74;100.00;100340.94;7400088;19;20399;-49
2022/09/18 09:42:14;;;;;;;5.07;1.50;;;;;;;10.86;100.00;100336.19;7392721;19;20438;-55
2022/09/18 09:44:48;;;;;;;9.13;1.67;;;;;;;10.83;100.00;100341.25;7395935;19;20454;-49
2022/09/18 09:47:25;;;;;;;5.13;1.20;;;;;;;10.80;100.00;100354.94;7393211;19;20404;-50
2022/09/18 09:50:06;;;;;;;6.20;1.50;;;;;;;10.93;100.00;100378.59;7397714;19;20395;-59
2022/09/18 09:52:37;;;;;;;7.60;1.37;;;;;;;11.00;100.00;100377.06;7394827;19;20436;-58
2022/09/18 09:55:23;;;;;;;3.97;0.87;;;;;;;11.13;100.00;100374.06;7395092;19;20484;-54
2022/09/18 09:58:01;;;;;;;8.40;1.03;;;;;;;11.29;100.00;100366.84;7393285;19;20751;-57
2022/09/18 10:00:35;;;;;;;6.03;1.30;;;;;;;11.15;100.00;100380.19;7397972;19;20400;-56
2022/09/18 10:03:19;;;;;;;5.27;1.00;;;;;;;11.31;100.00;100367.75;7391373;19;20433;-55
2022/09/18 10:05:54;;;;;;;4.60;1.20;;;;;;;11.45;100.00;100378.56;7394988;19;20417;-54
2022/09/18 10:08:29;;;;;;;6.07;0.90;;;;;;;11.19;100.00;100382.03;7393784;19;20459;-56
2022/09/18 10:10:59;;;;;;;8.10;1.20;;;;;;;11.39;100.00;100383.50;7396825;19;20409;-57
2022/09/18 10:13:32;;;;;;;10.30;2.20;;;;;;;11.41;100.00;100393.06;7395955;19;20451;-52
2022/09/18 10:16:04;;;;;;;11.00;1.90;;;;;;;11.33;100.00;100407.41;7392305;19;20383;-53
2022/09/18 10:18:38;;;;;;;10.20;1.77;;;;;;;11.40;100.00;100406.81;7396510;19;20381;-53
2022/09/18 10:21:12;;;;;;;11.20;1.30;;;;;;;11.55;100.00;100401.28;7392507;19;20954;-51
2022/09/18 10:23:43;;;;;;;8.27;1.40;;;;;;;11.71;100.00;100418.16;7393705;19;20384;-59
2022/09/18 10:26:16;;;;;;;4.73;1.10;;;;;;;11.74;100.00;100413.06;7391813;19;20743;-57
2022/09/18 10:28:46;;;;;;;5.50;1.23;;;;;;;11.74;100.00;100431.16;7396609;19;20388;-56
2022/09/18 10:31:16;;;;;;;8.13;0.90;;;;;;;11.91;100.00;100430.81;7391839;19;20386;-55
2022/09/18 10:33:47;;;;;;;8.70;1.27;;;;;;;11.96;100.00;100443.88;7395256;19;20754;-60
2022/09/18 10:36:30;;;;;;;6.77;1.40;;;;;;;12.17;100.00;100442.81;7391442;19;20385;-60
2022/09/18 10:39:00;;;;;;;5.50;1.50;;;;;;;12.36;100.00;100433.91;7396450;19;20411;-54
2022/09/18 10:41:32;;;;;;;8.63;1.37;;;;;;;12.16;100.00;100436.78;7391554;19;20431;-52
2022/09/18 10:44:21;;;;;;;9.63;2.17;;;;;;;11.92;100.00;100445.50;7397948;19;20430;-57
2022/09/18 10:46:56;;;;;;;11.03;2.10;;;;;;;11.46;100.00;100456.09;7388445;19;20413;-58
2022/09/18 10:49:29;;;;;;;14.07;2.83;;;;;;;10.45;100.00;100446.56;7394950;19;20391;-57
2022/09/18 10:52:21;;;;;;;6.13;1.20;;;;;;;9.39;100.00;100371.16;7395391;19;20396;-52
2022/09/18 10:55:02;;;;;;;8.57;1.50;;;;;;;9.08;100.00;100328.72;7392459;19;20463;-52
2022/09/18 10:57:34;;;;;;;7.53;1.53;;;;;;;8.97;100.00;100297.41;7386070;19;20941;-51
2022/09/18 11:00:07;;;;;;;5.63;0.73;;;;;;;8.94;100.00;100294.72;7395100;19;20392;-50
2022/09/18 11:02:41;;;;;;;5.67;1.40;;;;;;;8.86;100.00;100291.84;7386352;19;20415;-54
2022/09/18 11:05:17;;;;;;;6.03;0.90;;;;;;;8.91;100.00;100284.28;7393257;19;20455;-58
2022/09/18 11:07:52;;;;;;;5.07;2.10;;;;;;;9.16;100.00;100275.88;7386341;19;20944;-54
2022/09/18 11:10:23;;;;;;;4.63;0.90;;;;;;;9.28;100.00;100280.63;7394738;19;20371;-54
2022/09/18 11:12:54;;;;;;;2.73;0.80;;;;;;;9.25;100.00;100288.25;7390549;19;20445;-58
2022/09/18 11:15:27;;;;;;;7.60;1.93;;;;;;;9.33;100.00;100288.53;7392355;19;20423;-49
2022/09/18 11:17:58;;;;;;;6.97;0.90;;;;;;;9.33;100.00;100288.53;7389542;19;20434;-60
2022/09/18 11:20:29;;;;;;;6.20;1.57;;;;;;;9.54;100.00;100293.63;7394455;19;20379;-51
2022/09/18 11:23:16;;;;;;;3.40;0.87;;;;;;;9.74;100.00;100290.94;7386615;19;20975;-55
2022/09/18 11:25:47;;;;;;;6.17;1.20;;;;;;;9.88;100.00;100283.72;7387768;19;20415;-59
2022/09/18 11:28:24;;;;;;;2.30;0.93;;;;;;;10.18;100.00;100289.94;7397360;19;20743;-54
2022/09/18 11:30:58;;;;;;;8.00;1.23;;;;;;;10.18;100.00;100271.91;7393444;19;20403;-53
2022/09/18 11:33:30;;;;;;;6.03;1.07;;;;;;;10.43;100.00;100290.84;7393270;19;20395;-54
2022/09/18 11:36:03;;;;;;;5.73;1.97;;;;;;;10.57;100.00;100289.66;7393031;19;20396;-56
2022/09/18 11:38:40;;;;;;;16.87;3.43;;;;;;;10.72;100.00;100301.31;7394161;19;20415;-55
2022/09/18 11:41:10;;;;;;;4.80;1.10;;;;;;;10.54;100.00;100333.38;7388598;19;20414;-53
2022/09/18 11:43:42;;;;;;;8.37;0.93;;;;;;;10.30;100.00;100370.31;7392259;19;20394;-54